INDIA METEOROLOGICAL DEPARTMENT, R.M.C. NEW DELHI
Dated:20 - 1 - 2022
METARS OF ALTERNATE AIRPORTS
Delhi      
VIDP 202230Z 00000KT 0250 R28/1600 R29/1200 FG FEW100 10/10 Q1011 NOSIG=
Lucknow    
VILK 202230Z 05003KT 0600 R27/1800 FG SCT020 BKN100 11/10 Q1010 NOSIG=
Jaipur     
VIJP 202200Z 12004KT 1600 BR FEW035 10/10 Q1011 BECMG 1500 BR=
Ahmedabad  
VAAH 202230Z 36002KT 3000 BR NSC 18/17 Q1009 NOSIG=
Mumbai     
VABB 202200Z 00000KT 3000 HZ FEW100 22/17 Q1010 NOSIG=